sensor_id;sensor_type;location;lat;lon;timestamp;P1;durP1;ratioP1;P2;durP2;ratioP2
29838;SDS011;18669;53.356;-1.464;2023-02-08T00:02:17;20.85;;;9.38;;
29838;SDS011;18669;53.356;-1.464;2023-02-08T00:04:43;20.00;;;9.63;;
29838;SDS011;18669;53.356;-1.464;2023-02-08T00:07:09;21.92;;;10.65;;
29838;SDS011;18669;53.356;-1.464;2023-02-08T00:09:35;24.98;;;10.57;;
29838;SDS011;18669;53.356;-1.464;2023-02-08T00:12:01;22.35;;;10.10;;
29838;SDS011;18669;53.356;-1.464;2023-02-08T00:16:53;20.90;;;8.98;;
29838;SDS011;18669;53.356;-1.464;2023-02-08T00:19:19;18.67;;;8.73;;
29838;SDS011;18669;53.356;-1.464;2023-02-08T00:21:45;22.33;;;9.00;;
29838;SDS011;18669;53.356;-1.464;2023-02-08T00:24:11;22.58;;;8.93;;
29838;SDS011;18669;53.356;-1.464;2023-02-08T00:26:37;14.93;;;8.30;;
29838;SDS011;18669;53.356;-1.464;2023-02-08T00:29:03;19.98;;;8.20;;
29838;SDS011;18669;53.356;-1.464;2023-02-08T00:31:29;21.83;;;9.10;;
29838;SDS011;18669;53.356;-1.464;2023-02-08T00:33:55;22.75;;;8.82;;
29838;SDS011;18669;53.356;-1.464;2023-02-08T00:36:21;18.17;;;8.85;;
29838;SDS011;18669;53.356;-1.464;2023-02-08T00:38:47;17.35;;;9.20;;
29838;SDS011;18669;53.356;-1.464;2023-02-08T00:41:13;24.10;;;8.50;;
29838;SDS011;18669;53.356;-1.464;2023-02-08T00:43:39;19.00;;;8.68;;
29838;SDS011;18669;53.356;-1.464;2023-02-08T00:46:05;15.10;;;8.20;;
29838;SDS011;18669;53.356;-1.464;2023-02-08T00:48:32;16.50;;;8.50;;
29838;SDS011;18669;53.356;-1.464;2023-02-08T00:51:09;24.50;;;8.88;;
29838;SDS011;18669;53.356;-1.464;2023-02-08T00:53:39;22.85;;;8.02;;
29838;SDS011;18669;53.356;-1.464;2023-02-08T00:56:07;23.02;;;8.25;;
29838;SDS011;18669;53.356;-1.464;2023-02-08T00:58:34;17.48;;;7.78;;
29838;SDS011;18669;53.356;-1.464;2023-02-08T01:01:01;18.83;;;8.52;;
29838;SDS011;18669;53.356;-1.464;2023-02-08T01:03:28;17.50;;;8.50;;
29838;SDS011;18669;53.356;-1.464;2023-02-08T01:05:58;14.02;;;8.05;;
29838;SDS011;18669;53.356;-1.464;2023-02-08T01:08:25;17.52;;;8.45;;
29838;SDS011;18669;53.356;-1.464;2023-02-08T01:10:51;22.85;;;8.52;;
29838;SDS011;18669;53.356;-1.464;2023-02-08T01:13:17;15.60;;;8.50;;
29838;SDS011;18669;53.356;-1.464;2023-02-08T01:15:43;15.82;;;7.97;;
29838;SDS011;18669;53.356;-1.464;2023-02-08T01:18:09;13.80;;;7.15;;
29838;SDS011;18669;53.356;-1.464;2023-02-08T01:20:35;14.27;;;7.40;;
29838;SDS011;18669;53.356;-1.464;2023-02-08T01:23:02;16.92;;;7.70;;
29838;SDS011;18669;53.356;-1.464;2023-02-08T01:25:29;15.52;;;7.30;;
29838;SDS011;18669;53.356;-1.464;2023-02-08T01:27:55;15.23;;;7.30;;
29838;SDS011;18669;53.356;-1.464;2023-02-08T01:30:22;14.73;;;7.55;;
29838;SDS011;18669;53.356;-1.464;2023-02-08T01:32:48;22.77;;;8.20;;
29838;SDS011;18669;53.356;-1.464;2023-02-08T01:35:14;17.20;;;7.82;;
29838;SDS011;18669;53.356;-1.464;2023-02-08T01:37:40;16.85;;;7.65;;
29838;SDS011;18669;53.356;-1.464;2023-02-08T01:40:06;14.77;;;7.70;;
29838;SDS011;18669;53.356;-1.464;2023-02-08T01:47:58;15.15;;;7.72;;
29838;SDS011;18669;53.356;-1.464;2023-02-08T01:50:33;14.15;;;8.05;;
29838;SDS011;18669;53.356;-1.464;2023-02-08T01:53:06;16.65;;;8.43;;
29838;SDS011;18669;53.356;-1.464;2023-02-08T01:58:01;15.10;;;7.57;;
29838;SDS011;18669;53.356;-1.464;2023-02-08T02:00:30;15.77;;;8.02;;
29838;SDS011;18669;53.356;-1.464;2023-02-08T02:02:56;18.92;;;8.23;;
29838;SDS011;18669;53.356;-1.464;2023-02-08T02:05:42;20.92;;;8.02;;
29838;SDS011;18669;53.356;-1.464;2023-02-08T02:08:12;16.83;;;7.18;;
29838;SDS011;18669;53.356;-1.464;2023-02-08T02:10:39;16.05;;;7.75;;
29838;SDS011;18669;53.356;-1.464;2023-02-08T02:13:11;14.63;;;7.05;;
29838;SDS011;18669;53.356;-1.464;2023-02-08T02:15:45;11.60;;;7.10;;
29838;SDS011;18669;53.356;-1.464;2023-02-08T02:18:14;20.45;;;8.27;;
29838;SDS011;18669;53.356;-1.464;2023-02-08T02:29:29;19.15;;;8.27;;
29838;SDS011;18669;53.356;-1.464;2023-02-08T02:32:14;22.48;;;8.05;;
29838;SDS011;18669;53.356;-1.464;2023-02-08T02:43:12;15.48;;;7.57;;
29838;SDS011;18669;53.356;-1.464;2023-02-08T02:46:07;23.42;;;7.53;;
29838;SDS011;18669;53.356;-1.464;2023-02-08T02:51:26;19.40;;;7.47;;
29838;SDS011;18669;53.356;-1.464;2023-02-08T02:54:02;12.95;;;6.85;;
29838;SDS011;18669;53.356;-1.464;2023-02-08T02:56:34;19.60;;;7.90;;
29838;SDS011;18669;53.356;-1.464;2023-02-08T02:59:05;17.95;;;7.97;;
29838;SDS011;18669;53.356;-1.464;2023-02-08T03:01:33;12.88;;;7.32;;
29838;SDS011;18669;53.356;-1.464;2023-02-08T03:03:59;18.27;;;8.60;;
29838;SDS011;18669;53.356;-1.464;2023-02-08T03:06:41;16.23;;;7.93;;
29838;SDS011;18669;53.356;-1.464;2023-02-08T03:12:08;18.48;;;8.05;;
29838;SDS011;18669;53.356;-1.464;2023-02-08T03:20:07;16.30;;;8.40;;
29838;SDS011;18669;53.356;-1.464;2023-02-08T03:26:19;19.05;;;8.80;;
29838;SDS011;18669;53.356;-1.464;2023-02-08T03:28:26;18.17;;;9.90;;
29838;SDS011;18669;53.356;-1.464;2023-02-08T03:31:17;18.05;;;9.90;;
29838;SDS011;18669;53.356;-1.464;2023-02-08T03:33:53;17.52;;;9.90;;
29838;SDS011;18669;53.356;-1.464;2023-02-08T03:36:32;19.75;;;9.63;;
29838;SDS011;18669;53.356;-1.464;2023-02-08T03:39:00;15.23;;;8.95;;
29838;SDS011;18669;53.356;-1.464;2023-02-08T03:41:31;20.67;;;9.35;;
29838;SDS011;18669;53.356;-1.464;2023-02-08T03:44:01;16.63;;;8.60;;
29838;SDS011;18669;53.356;-1.464;2023-02-08T03:46:33;22.02;;;9.95;;
29838;SDS011;18669;53.356;-1.464;2023-02-08T03:49:04;17.40;;;8.75;;
29838;SDS011;18669;53.356;-1.464;2023-02-08T03:51:41;19.80;;;8.75;;
29838;SDS011;18669;53.356;-1.464;2023-02-08T03:54:11;20.70;;;9.25;;
29838;SDS011;18669;53.356;-1.464;2023-02-08T03:56:44;15.35;;;9.23;;
29838;SDS011;18669;53.356;-1.464;2023-02-08T03:59:21;15.15;;;8.98;;
29838;SDS011;18669;53.356;-1.464;2023-02-08T04:01:56;19.50;;;9.23;;
29838;SDS011;18669;53.356;-1.464;2023-02-08T04:04:25;18.52;;;8.57;;
29838;SDS011;18669;53.356;-1.464;2023-02-08T04:07:00;23.85;;;9.65;;
29838;SDS011;18669;53.356;-1.464;2023-02-08T04:09:26;20.23;;;9.38;;
29838;SDS011;18669;53.356;-1.464;2023-02-08T04:11:52;15.68;;;8.48;;
29838;SDS011;18669;53.356;-1.464;2023-02-08T04:14:18;21.27;;;9.13;;
29838;SDS011;18669;53.356;-1.464;2023-02-08T04:16:44;17.52;;;9.35;;
29838;SDS011;18669;53.356;-1.464;2023-02-08T04:19:10;20.17;;;9.07;;
29838;SDS011;18669;53.356;-1.464;2023-02-08T04:21:36;17.23;;;9.45;;
29838;SDS011;18669;53.356;-1.464;2023-02-08T04:24:02;28.40;;;10.98;;
29838;SDS011;18669;53.356;-1.464;2023-02-08T04:26:28;25.25;;;10.88;;
29838;SDS011;18669;53.356;-1.464;2023-02-08T04:28:54;22.17;;;10.43;;
29838;SDS011;18669;53.356;-1.464;2023-02-08T04:31:20;19.85;;;9.70;;
29838;SDS011;18669;53.356;-1.464;2023-02-08T04:33:46;21.73;;;10.77;;
29838;SDS011;18669;53.356;-1.464;2023-02-08T04:36:12;19.40;;;10.90;;
29838;SDS011;18669;53.356;-1.464;2023-02-08T04:38:38;24.23;;;11.15;;
29838;SDS011;18669;53.356;-1.464;2023-02-08T04:41:04;31.83;;;12.95;;
29838;SDS011;18669;53.356;-1.464;2023-02-08T04:43:30;20.17;;;11.50;;
29838;SDS011;18669;53.356;-1.464;2023-02-08T04:45:56;20.98;;;11.43;;
29838;SDS011;18669;53.356;-1.464;2023-02-08T04:48:22;26.52;;;12.52;;
29838;SDS011;18669;53.356;-1.464;2023-02-08T04:50:48;26.92;;;12.25;;
29838;SDS011;18669;53.356;-1.464;2023-02-08T04:53:14;20.20;;;12.23;;
29838;SDS011;18669;53.356;-1.464;2023-02-08T04:55:40;25.10;;;12.60;;
29838;SDS011;18669;53.356;-1.464;2023-02-08T04:58:06;33.33;;;14.00;;
29838;SDS011;18669;53.356;-1.464;2023-02-08T05:00:32;27.00;;;12.82;;
29838;SDS011;18669;53.356;-1.464;2023-02-08T05:02:58;23.95;;;13.15;;
29838;SDS011;18669;53.356;-1.464;2023-02-08T05:05:25;27.17;;;12.82;;
29838;SDS011;18669;53.356;-1.464;2023-02-08T05:07:52;24.27;;;12.82;;
29838;SDS011;18669;53.356;-1.464;2023-02-08T05:12:44;27.63;;;11.98;;
29838;SDS011;18669;53.356;-1.464;2023-02-08T05:15:10;21.85;;;11.90;;
29838;SDS011;18669;53.356;-1.464;2023-02-08T05:20:03;20.08;;;11.77;;
29838;SDS011;18669;53.356;-1.464;2023-02-08T05:22:30;21.10;;;11.13;;
29838;SDS011;18669;53.356;-1.464;2023-02-08T05:24:57;28.63;;;12.38;;
29838;SDS011;18669;53.356;-1.464;2023-02-08T05:27:23;24.88;;;11.52;;
29838;SDS011;18669;53.356;-1.464;2023-02-08T05:29:49;25.33;;;11.45;;
29838;SDS011;18669;53.356;-1.464;2023-02-08T05:32:15;24.58;;;11.68;;
29838;SDS011;18669;53.356;-1.464;2023-02-08T05:34:41;34.67;;;13.40;;
29838;SDS011;18669;53.356;-1.464;2023-02-08T05:37:07;30.90;;;11.88;;
29838;SDS011;18669;53.356;-1.464;2023-02-08T05:39:33;27.13;;;11.60;;
29838;SDS011;18669;53.356;-1.464;2023-02-08T05:41:59;21.38;;;10.77;;
29838;SDS011;18669;53.356;-1.464;2023-02-08T05:44:25;28.90;;;11.93;;
29838;SDS011;18669;53.356;-1.464;2023-02-08T05:46:51;29.88;;;11.45;;
29838;SDS011;18669;53.356;-1.464;2023-02-08T05:49:17;22.50;;;11.55;;
29838;SDS011;18669;53.356;-1.464;2023-02-08T05:51:43;26.25;;;11.52;;
29838;SDS011;18669;53.356;-1.464;2023-02-08T05:54:09;32.45;;;10.68;;
29838;SDS011;18669;53.356;-1.464;2023-02-08T05:56:35;22.90;;;11.32;;
29838;SDS011;18669;53.356;-1.464;2023-02-08T05:59:01;21.15;;;10.52;;
29838;SDS011;18669;53.356;-1.464;2023-02-08T06:03:53;22.70;;;10.90;;
29838;SDS011;18669;53.356;-1.464;2023-02-08T06:06:20;24.70;;;10.05;;
29838;SDS011;18669;53.356;-1.464;2023-02-08T06:08:46;24.02;;;10.55;;
29838;SDS011;18669;53.356;-1.464;2023-02-08T06:11:12;17.15;;;9.40;;
29838;SDS011;18669;53.356;-1.464;2023-02-08T06:13:38;26.55;;;10.63;;
29838;SDS011;18669;53.356;-1.464;2023-02-08T06:16:04;19.60;;;10.25;;
29838;SDS011;18669;53.356;-1.464;2023-02-08T06:18:31;21.40;;;9.18;;
29838;SDS011;18669;53.356;-1.464;2023-02-08T06:20:57;25.67;;;10.35;;
29838;SDS011;18669;53.356;-1.464;2023-02-08T06:23:23;20.17;;;9.23;;
29838;SDS011;18669;53.356;-1.464;2023-02-08T06:25:49;21.27;;;9.60;;
29838;SDS011;18669;53.356;-1.464;2023-02-08T06:28:15;23.90;;;9.30;;
29838;SDS011;18669;53.356;-1.464;2023-02-08T06:33:08;22.23;;;8.90;;
29838;SDS011;18669;53.356;-1.464;2023-02-08T06:35:34;28.73;;;9.35;;
29838;SDS011;18669;53.356;-1.464;2023-02-08T06:38:00;18.98;;;8.52;;
29838;SDS011;18669;53.356;-1.464;2023-02-08T06:40:26;28.73;;;9.07;;
29838;SDS011;18669;53.356;-1.464;2023-02-08T06:42:52;20.65;;;8.43;;
29838;SDS011;18669;53.356;-1.464;2023-02-08T06:45:18;22.65;;;9.27;;
29838;SDS011;18669;53.356;-1.464;2023-02-08T06:47:44;25.05;;;9.73;;
29838;SDS011;18669;53.356;-1.464;2023-02-08T06:50:10;20.95;;;9.32;;
29838;SDS011;18669;53.356;-1.464;2023-02-08T06:52:36;33.13;;;18.98;;
29838;SDS011;18669;53.356;-1.464;2023-02-08T06:55:02;31.88;;;10.57;;
29838;SDS011;18669;53.356;-1.464;2023-02-08T06:57:28;26.85;;;11.10;;
29838;SDS011;18669;53.356;-1.464;2023-02-08T06:59:54;24.85;;;10.80;;
29838;SDS011;18669;53.356;-1.464;2023-02-08T07:02:20;24.52;;;10.18;;
29838;SDS011;18669;53.356;-1.464;2023-02-08T07:04:46;21.55;;;10.65;;
29838;SDS011;18669;53.356;-1.464;2023-02-08T07:07:13;31.35;;;11.63;;
29838;SDS011;18669;53.356;-1.464;2023-02-08T07:09:41;32.95;;;12.63;;
29838;SDS011;18669;53.356;-1.464;2023-02-08T07:14:34;29.92;;;12.48;;
29838;SDS011;18669;53.356;-1.464;2023-02-08T07:17:02;40.92;;;15.30;;
29838;SDS011;18669;53.356;-1.464;2023-02-08T07:19:28;29.15;;;14.32;;
29838;SDS011;18669;53.356;-1.464;2023-02-08T07:21:55;31.50;;;14.43;;
29838;SDS011;18669;53.356;-1.464;2023-02-08T07:24:21;40.83;;;14.57;;
29838;SDS011;18669;53.356;-1.464;2023-02-08T07:26:47;35.80;;;14.25;;
29838;SDS011;18669;53.356;-1.464;2023-02-08T07:29:13;33.75;;;14.40;;
29838;SDS011;18669;53.356;-1.464;2023-02-08T07:31:39;31.20;;;14.60;;
29838;SDS011;18669;53.356;-1.464;2023-02-08T07:34:05;30.70;;;14.82;;
29838;SDS011;18669;53.356;-1.464;2023-02-08T07:36:31;33.50;;;15.93;;
29838;SDS011;18669;53.356;-1.464;2023-02-08T07:38:57;28.05;;;15.07;;
29838;SDS011;18669;53.356;-1.464;2023-02-08T07:41:23;31.23;;;14.82;;
29838;SDS011;18669;53.356;-1.464;2023-02-08T07:43:49;27.98;;;14.70;;
29838;SDS011;18669;53.356;-1.464;2023-02-08T07:46:16;25.20;;;14.48;;
29838;SDS011;18669;53.356;-1.464;2023-02-08T07:48:44;30.95;;;14.05;;
29838;SDS011;18669;53.356;-1.464;2023-02-08T07:53:37;32.35;;;14.35;;
29838;SDS011;18669;53.356;-1.464;2023-02-08T07:56:05;31.52;;;14.95;;
29838;SDS011;18669;53.356;-1.464;2023-02-08T07:58:31;30.95;;;14.25;;
29838;SDS011;18669;53.356;-1.464;2023-02-08T08:00:57;23.88;;;13.15;;
29838;SDS011;18669;53.356;-1.464;2023-02-08T08:03:24;23.25;;;13.13;;
29838;SDS011;18669;53.356;-1.464;2023-02-08T08:05:50;35.25;;;13.18;;
29838;SDS011;18669;53.356;-1.464;2023-02-08T08:10:42;26.85;;;13.60;;
29838;SDS011;18669;53.356;-1.464;2023-02-08T08:13:09;21.88;;;13.65;;
29838;SDS011;18669;53.356;-1.464;2023-02-08T08:15:35;28.85;;;13.45;;
29838;SDS011;18669;53.356;-1.464;2023-02-08T08:18:01;32.47;;;13.27;;
29838;SDS011;18669;53.356;-1.464;2023-02-08T08:20:27;24.25;;;12.88;;
29838;SDS011;18669;53.356;-1.464;2023-02-08T08:22:53;24.52;;;11.70;;
29838;SDS011;18669;53.356;-1.464;2023-02-08T08:25:19;24.23;;;12.00;;
29838;SDS011;18669;53.356;-1.464;2023-02-08T08:27:45;22.17;;;10.65;;
29838;SDS011;18669;53.356;-1.464;2023-02-08T08:30:12;28.00;;;11.30;;
29838;SDS011;18669;53.356;-1.464;2023-02-08T08:32:43;22.15;;;10.43;;
29838;SDS011;18669;53.356;-1.464;2023-02-08T08:35:09;17.25;;;10.50;;
29838;SDS011;18669;53.356;-1.464;2023-02-08T08:37:35;20.13;;;9.90;;
29838;SDS011;18669;53.356;-1.464;2023-02-08T08:42:29;21.17;;;10.35;;
29838;SDS011;18669;53.356;-1.464;2023-02-08T08:44:54;27.77;;;10.45;;
29838;SDS011;18669;53.356;-1.464;2023-02-08T08:47:21;25.63;;;11.68;;
29838;SDS011;18669;53.356;-1.464;2023-02-08T08:49:47;23.90;;;10.48;;
29838;SDS011;18669;53.356;-1.464;2023-02-08T08:52:13;21.63;;;11.02;;
29838;SDS011;18669;53.356;-1.464;2023-02-08T08:54:39;27.33;;;10.88;;
29838;SDS011;18669;53.356;-1.464;2023-02-08T08:57:05;30.40;;;10.48;;
29838;SDS011;18669;53.356;-1.464;2023-02-08T08:59:31;25.65;;;10.48;;
29838;SDS011;18669;53.356;-1.464;2023-02-08T09:01:58;24.20;;;10.90;;
29838;SDS011;18669;53.356;-1.464;2023-02-08T09:04:24;27.33;;;11.35;;
29838;SDS011;18669;53.356;-1.464;2023-02-08T09:09:16;20.38;;;10.43;;
29838;SDS011;18669;53.356;-1.464;2023-02-08T09:11:43;22.00;;;11.40;;
29838;SDS011;18669;53.356;-1.464;2023-02-08T09:14:10;22.02;;;12.00;;
29838;SDS011;18669;53.356;-1.464;2023-02-08T09:16:36;25.50;;;11.25;;
29838;SDS011;18669;53.356;-1.464;2023-02-08T09:19:03;27.60;;;12.38;;
29838;SDS011;18669;53.356;-1.464;2023-02-08T09:21:30;25.77;;;11.52;;
29838;SDS011;18669;53.356;-1.464;2023-02-08T09:26:22;23.77;;;11.15;;
29838;SDS011;18669;53.356;-1.464;2023-02-08T09:28:49;24.05;;;11.23;;
29838;SDS011;18669;53.356;-1.464;2023-02-08T09:31:19;22.70;;;10.68;;
29838;SDS011;18669;53.356;-1.464;2023-02-08T09:33:48;23.77;;;11.57;;
29838;SDS011;18669;53.356;-1.464;2023-02-08T09:36:16;22.70;;;10.63;;
29838;SDS011;18669;53.356;-1.464;2023-02-08T09:38:43;21.48;;;9.68;;
29838;SDS011;18669;53.356;-1.464;2023-02-08T09:44:26;23.23;;;9.95;;
29838;SDS011;18669;53.356;-1.464;2023-02-08T09:49:35;18.67;;;10.00;;
29838;SDS011;18669;53.356;-1.464;2023-02-08T09:52:08;27.23;;;11.43;;
29838;SDS011;18669;53.356;-1.464;2023-02-08T09:54:56;20.70;;;10.43;;
29838;SDS011;18669;53.356;-1.464;2023-02-08T09:57:28;21.67;;;9.40;;
29838;SDS011;18669;53.356;-1.464;2023-02-08T09:59:59;23.20;;;9.75;;
29838;SDS011;18669;53.356;-1.464;2023-02-08T10:02:30;18.75;;;9.77;;
29838;SDS011;18669;53.356;-1.464;2023-02-08T10:05:06;20.90;;;9.23;;
29838;SDS011;18669;53.356;-1.464;2023-02-08T10:07:36;24.35;;;8.65;;
29838;SDS011;18669;53.356;-1.464;2023-02-08T10:10:06;18.23;;;8.90;;
29838;SDS011;18669;53.356;-1.464;2023-02-08T10:12:51;19.90;;;9.77;;
29838;SDS011;18669;53.356;-1.464;2023-02-08T10:24:14;17.58;;;9.07;;
29838;SDS011;18669;53.356;-1.464;2023-02-08T10:35:10;17.90;;;7.60;;
29838;SDS011;18669;53.356;-1.464;2023-02-08T10:37:39;19.08;;;8.00;;
29838;SDS011;18669;53.356;-1.464;2023-02-08T10:42:45;13.52;;;7.28;;
29838;SDS011;18669;53.356;-1.464;2023-02-08T10:45:18;14.88;;;6.65;;
29838;SDS011;18669;53.356;-1.464;2023-02-08T10:47:55;17.08;;;8.05;;
29838;SDS011;18669;53.356;-1.464;2023-02-08T10:50:43;13.70;;;6.90;;
29838;SDS011;18669;53.356;-1.464;2023-02-08T10:53:13;16.23;;;7.13;;
29838;SDS011;18669;53.356;-1.464;2023-02-08T10:55:42;12.80;;;7.25;;
29838;SDS011;18669;53.356;-1.464;2023-02-08T10:58:15;12.15;;;7.10;;
29838;SDS011;18669;53.356;-1.464;2023-02-08T11:00:43;13.13;;;6.68;;
29838;SDS011;18669;53.356;-1.464;2023-02-08T11:03:20;12.00;;;7.07;;
29838;SDS011;18669;53.356;-1.464;2023-02-08T11:05:50;16.92;;;7.63;;
29838;SDS011;18669;53.356;-1.464;2023-02-08T11:08:20;17.05;;;6.90;;
29838;SDS011;18669;53.356;-1.464;2023-02-08T11:10:56;19.98;;;7.07;;
29838;SDS011;18669;53.356;-1.464;2023-02-08T11:13:23;12.93;;;6.78;;
29838;SDS011;18669;53.356;-1.464;2023-02-08T11:15:56;14.45;;;7.82;;
29838;SDS011;18669;53.356;-1.464;2023-02-08T11:21:06;16.50;;;8.30;;
29838;SDS011;18669;53.356;-1.464;2023-02-08T11:23:37;18.17;;;7.50;;
29838;SDS011;18669;53.356;-1.464;2023-02-08T11:26:16;15.50;;;7.85;;
29838;SDS011;18669;53.356;-1.464;2023-02-08T11:31:54;17.65;;;7.32;;
29838;SDS011;18669;53.356;-1.464;2023-02-08T11:34:36;15.65;;;7.20;;
29838;SDS011;18669;53.356;-1.464;2023-02-08T11:37:12;14.05;;;6.93;;
29838;SDS011;18669;53.356;-1.464;2023-02-08T11:39:43;11.45;;;6.85;;
29838;SDS011;18669;53.356;-1.464;2023-02-08T11:42:21;19.33;;;7.85;;
29838;SDS011;18669;53.356;-1.464;2023-02-08T11:44:56;16.50;;;7.07;;
29838;SDS011;18669;53.356;-1.464;2023-02-08T11:47:29;12.02;;;6.57;;
29838;SDS011;18669;53.356;-1.464;2023-02-08T11:49:59;12.27;;;6.68;;
29838;SDS011;18669;53.356;-1.464;2023-02-08T11:52:34;12.35;;;6.65;;
29838;SDS011;18669;53.356;-1.464;2023-02-08T11:57:38;17.45;;;6.40;;
29838;SDS011;18669;53.356;-1.464;2023-02-08T12:00:36;13.85;;;6.90;;
29838;SDS011;18669;53.356;-1.464;2023-02-08T12:03:04;14.48;;;6.47;;
29838;SDS011;18669;53.356;-1.464;2023-02-08T12:11:17;12.27;;;6.97;;
29838;SDS011;18669;53.356;-1.464;2023-02-08T12:16:51;17.35;;;5.72;;
29838;SDS011;18669;53.356;-1.464;2023-02-08T12:19:45;12.48;;;6.07;;
29838;SDS011;18669;53.356;-1.464;2023-02-08T12:22:24;11.90;;;5.68;;
29838;SDS011;18669;53.356;-1.464;2023-02-08T12:44:36;12.45;;;5.93;;
29838;SDS011;18669;53.356;-1.464;2023-02-08T12:52:54;18.58;;;6.53;;
29838;SDS011;18669;53.356;-1.464;2023-02-08T12:55:34;12.95;;;5.95;;
29838;SDS011;18669;53.356;-1.464;2023-02-08T13:00:51;13.77;;;6.70;;
29838;SDS011;18669;53.356;-1.464;2023-02-08T13:05:56;11.47;;;6.53;;
29838;SDS011;18669;53.356;-1.464;2023-02-08T13:08:30;27.00;;;13.20;;
29838;SDS011;18669;53.356;-1.464;2023-02-08T13:16:57;9.60;;;6.30;;
29838;SDS011;18669;53.356;-1.464;2023-02-08T13:19:35;14.77;;;6.88;;
29838;SDS011;18669;53.356;-1.464;2023-02-08T13:22:25;15.60;;;7.15;;
29838;SDS011;18669;53.356;-1.464;2023-02-08T13:24:55;17.30;;;8.75;;
29838;SDS011;18669;53.356;-1.464;2023-02-08T13:27:21;16.08;;;8.90;;
29838;SDS011;18669;53.356;-1.464;2023-02-08T13:29:48;14.90;;;8.90;;
29838;SDS011;18669;53.356;-1.464;2023-02-08T13:32:18;21.88;;;8.88;;
29838;SDS011;18669;53.356;-1.464;2023-02-08T13:34:51;14.68;;;9.18;;
29838;SDS011;18669;53.356;-1.464;2023-02-08T13:37:25;17.67;;;9.30;;
29838;SDS011;18669;53.356;-1.464;2023-02-08T13:45:07;19.35;;;11.40;;
29838;SDS011;18669;53.356;-1.464;2023-02-08T13:47:47;23.45;;;11.50;;
29838;SDS011;18669;53.356;-1.464;2023-02-08T13:53:01;18.80;;;10.75;;
29838;SDS011;18669;53.356;-1.464;2023-02-08T14:00:30;22.42;;;10.93;;
29838;SDS011;18669;53.356;-1.464;2023-02-08T14:02:59;17.75;;;10.05;;
29838;SDS011;18669;53.356;-1.464;2023-02-08T14:11:41;18.42;;;9.68;;
29838;SDS011;18669;53.356;-1.464;2023-02-08T14:16:44;16.73;;;7.97;;
29838;SDS011;18669;53.356;-1.464;2023-02-08T14:21:43;16.90;;;8.32;;
29838;SDS011;18669;53.356;-1.464;2023-02-08T14:24:19;21.33;;;8.48;;
29838;SDS011;18669;53.356;-1.464;2023-02-08T14:27:10;16.50;;;7.70;;
29838;SDS011;18669;53.356;-1.464;2023-02-08T14:32:41;16.95;;;7.40;;
29838;SDS011;18669;53.356;-1.464;2023-02-08T14:37:40;19.83;;;7.60;;
29838;SDS011;18669;53.356;-1.464;2023-02-08T14:45:36;16.17;;;7.28;;
29838;SDS011;18669;53.356;-1.464;2023-02-08T14:50:35;15.65;;;7.10;;
29838;SDS011;18669;53.356;-1.464;2023-02-08T14:55:36;13.32;;;7.15;;
29838;SDS011;18669;53.356;-1.464;2023-02-08T14:58:11;19.60;;;7.15;;
29838;SDS011;18669;53.356;-1.464;2023-02-08T15:00:40;14.55;;;7.43;;
29838;SDS011;18669;53.356;-1.464;2023-02-08T15:03:11;24.80;;;11.40;;
29838;SDS011;18669;53.356;-1.464;2023-02-08T15:05:59;15.80;;;8.27;;
29838;SDS011;18669;53.356;-1.464;2023-02-08T15:08:38;14.13;;;6.78;;
29838;SDS011;18669;53.356;-1.464;2023-02-08T15:11:04;15.07;;;7.00;;
29838;SDS011;18669;53.356;-1.464;2023-02-08T15:13:41;16.08;;;7.28;;
29838;SDS011;18669;53.356;-1.464;2023-02-08T15:16:08;14.98;;;7.25;;
29838;SDS011;18669;53.356;-1.464;2023-02-08T15:18:36;12.57;;;6.53;;
29838;SDS011;18669;53.356;-1.464;2023-02-08T15:21:06;17.77;;;7.05;;
29838;SDS011;18669;53.356;-1.464;2023-02-08T15:23:56;16.70;;;7.03;;
29838;SDS011;18669;53.356;-1.464;2023-02-08T15:26:32;17.75;;;8.00;;
29838;SDS011;18669;53.356;-1.464;2023-02-08T15:31:27;12.55;;;6.00;;
29838;SDS011;18669;53.356;-1.464;2023-02-08T15:33:56;15.27;;;6.57;;
29838;SDS011;18669;53.356;-1.464;2023-02-08T15:36:25;12.90;;;6.78;;
29838;SDS011;18669;53.356;-1.464;2023-02-08T15:38:55;14.43;;;6.22;;
29838;SDS011;18669;53.356;-1.464;2023-02-08T15:41:24;13.45;;;7.10;;
29838;SDS011;18669;53.356;-1.464;2023-02-08T15:44:11;14.30;;;6.47;;
29838;SDS011;18669;53.356;-1.464;2023-02-08T15:46:42;17.02;;;7.60;;
29838;SDS011;18669;53.356;-1.464;2023-02-08T15:49:11;12.27;;;7.40;;
29838;SDS011;18669;53.356;-1.464;2023-02-08T15:51:42;14.68;;;6.93;;
29838;SDS011;18669;53.356;-1.464;2023-02-08T15:54:27;14.05;;;7.07;;
29838;SDS011;18669;53.356;-1.464;2023-02-08T15:57:03;14.65;;;7.57;;
29838;SDS011;18669;53.356;-1.464;2023-02-08T15:59:34;11.80;;;6.88;;
29838;SDS011;18669;53.356;-1.464;2023-02-08T16:04:52;14.35;;;6.75;;
29838;SDS011;18669;53.356;-1.464;2023-02-08T16:07:30;16.20;;;5.70;;
29838;SDS011;18669;53.356;-1.464;2023-02-08T16:09:59;14.07;;;6.07;;
29838;SDS011;18669;53.356;-1.464;2023-02-08T16:12:26;11.93;;;5.45;;
29838;SDS011;18669;53.356;-1.464;2023-02-08T16:14:53;11.80;;;5.50;;
29838;SDS011;18669;53.356;-1.464;2023-02-08T16:20:20;13.93;;;5.00;;
29838;SDS011;18669;53.356;-1.464;2023-02-08T16:25:51;16.67;;;6.05;;
29838;SDS011;18669;53.356;-1.464;2023-02-08T16:28:29;10.75;;;5.40;;
29838;SDS011;18669;53.356;-1.464;2023-02-08T16:31:01;13.63;;;7.07;;
29838;SDS011;18669;53.356;-1.464;2023-02-08T16:33:30;11.50;;;5.43;;
29838;SDS011;18669;53.356;-1.464;2023-02-08T16:35:57;10.05;;;5.28;;
29838;SDS011;18669;53.356;-1.464;2023-02-08T16:38:31;11.85;;;5.15;;
29838;SDS011;18669;53.356;-1.464;2023-02-08T16:41:00;10.48;;;4.97;;
29838;SDS011;18669;53.356;-1.464;2023-02-08T16:43:37;11.30;;;4.95;;
29838;SDS011;18669;53.356;-1.464;2023-02-08T16:48:51;11.85;;;5.05;;
29838;SDS011;18669;53.356;-1.464;2023-02-08T16:51:21;8.57;;;4.65;;
29838;SDS011;18669;53.356;-1.464;2023-02-08T16:53:48;10.93;;;4.80;;
29838;SDS011;18669;53.356;-1.464;2023-02-08T16:56:16;10.50;;;4.65;;
29838;SDS011;18669;53.356;-1.464;2023-02-08T17:01:09;11.32;;;4.65;;
29838;SDS011;18669;53.356;-1.464;2023-02-08T17:03:37;15.93;;;5.25;;
29838;SDS011;18669;53.356;-1.464;2023-02-08T17:06:03;10.77;;;5.63;;
29838;SDS011;18669;53.356;-1.464;2023-02-08T17:10:57;12.07;;;4.85;;
29838;SDS011;18669;53.356;-1.464;2023-02-08T17:13:23;9.30;;;5.20;;
29838;SDS011;18669;53.356;-1.464;2023-02-08T17:15:51;11.77;;;5.40;;
29838;SDS011;18669;53.356;-1.464;2023-02-08T17:18:18;13.05;;;5.72;;
29838;SDS011;18669;53.356;-1.464;2023-02-08T17:20:44;13.68;;;6.22;;
29838;SDS011;18669;53.356;-1.464;2023-02-08T17:23:11;10.90;;;6.18;;
29838;SDS011;18669;53.356;-1.464;2023-02-08T17:25:39;15.10;;;7.28;;
29838;SDS011;18669;53.356;-1.464;2023-02-08T17:28:08;17.55;;;7.35;;
29838;SDS011;18669;53.356;-1.464;2023-02-08T17:30:40;13.70;;;6.57;;
29838;SDS011;18669;53.356;-1.464;2023-02-08T17:33:07;14.43;;;7.22;;
29838;SDS011;18669;53.356;-1.464;2023-02-08T17:35:36;14.73;;;6.93;;
29838;SDS011;18669;53.356;-1.464;2023-02-08T17:38:03;17.88;;;7.30;;
29838;SDS011;18669;53.356;-1.464;2023-02-08T17:40:31;14.32;;;7.53;;
29838;SDS011;18669;53.356;-1.464;2023-02-08T17:42:59;17.13;;;7.40;;
29838;SDS011;18669;53.356;-1.464;2023-02-08T17:45:27;21.70;;;9.13;;
29838;SDS011;18669;53.356;-1.464;2023-02-08T17:47:54;18.15;;;9.07;;
29838;SDS011;18669;53.356;-1.464;2023-02-08T17:50:23;17.58;;;9.55;;
29838;SDS011;18669;53.356;-1.464;2023-02-08T17:52:49;21.50;;;10.05;;
29838;SDS011;18669;53.356;-1.464;2023-02-08T17:55:16;18.38;;;9.13;;
29838;SDS011;18669;53.356;-1.464;2023-02-08T17:57:43;26.65;;;11.27;;